Time;durP1;ratioP1;P1;durP2;ratioP2;P2;SDS_P1;SDS_P2;PMS_P1;PMS_P2;Temp;Humidity;BMP_temperature;BMP_pressure;BME280_temperature;BME280_humidity;BME280_pressure;Samples;Min_cycle;Max_cycle;Signal;HPM_P1;HPM_P2
2022/12/17 13:06:48;;;;;;;17.27;9.80;;;19.10;53.70;;;;;;5045415;28;20416;-76
2022/12/17 13:09:14;;;;;;;17.15;9.00;;;19.10;54.70;;;;;;5016791;28;20472;-77
2022/12/17 13:11:41;;;;;;;22.17;8.70;;;19.10;57.10;;;;;;5001305;28;20066;-75
2022/12/17 13:14:18;;;;;;;17.95;8.77;;;19.10;53.90;;;;;;5051732;28;20052;-75
2022/12/17 13:16:46;;;;;;;18.60;9.60;;;19.10;58.30;;;;;;5045070;28;20028;-76
2022/12/17 13:19:30;;;;;;;15.35;8.82;;;19.10;55.50;;;;;;5051251;28;20372;-75
2022/12/17 13:22:28;;;;;;;15.30;8.25;;;19.10;55.80;;;;;;5025268;28;20779;-77
2022/12/17 13:25:07;;;;;;;23.05;8.82;;;19.10;55.80;;;;;;5017338;28;20387;-75
2022/12/17 13:27:33;;;;;;;;;;;19.20;56.50;;;;;;5032171;28;20534;-75
2022/12/17 13:30:29;;;;;;;31.23;10.07;;;19.20;57.00;;;;;;5051075;28;19908;-75
2022/12/17 13:33:16;;;;;;;19.55;9.90;;;19.30;57.70;;;;;;5031516;28;20034;-74
2022/12/17 13:35:54;;;;;;;24.45;11.05;;;19.40;60.20;;;;;;5032544;28;20037;-75
2022/12/17 13:38:30;;;;;;;21.38;10.38;;;19.40;60.20;;;;;;5057820;28;20478;-78
2022/12/17 13:41:04;;;;;;;41.47;11.55;;;19.40;59.10;;;;;;5047796;28;20033;-77
2022/12/17 13:43:37;;;;;;;37.42;22.73;;;19.40;59.80;;;;;;5049842;28;20025;-72
2022/12/17 13:46:03;;;;;;;96.60;74.88;;;18.90;44.10;;;;;;5033477;28;20021;-72
2022/12/17 13:48:29;;;;;;;76.32;54.65;;;18.10;38.00;;;;;;5052266;28;20035;-74
2022/12/17 13:51:00;;;;;;;78.60;54.20;;;17.80;41.70;;;;;;5050097;28;20025;-74
2022/12/17 13:53:28;;;;;;;70.55;51.60;;;18.00;44.40;;;;;;5051097;28;20029;-75
2022/12/17 13:55:56;;;;;;;66.78;45.97;;;18.20;44.80;;;;;;5046054;28;20484;-75
2022/12/17 13:58:27;;;;;;;65.60;44.42;;;18.40;46.80;;;;;;5045531;28;20029;-75
2022/12/17 14:01:05;;;;;;;65.85;44.88;;;18.60;49.70;;;;;;5014140;28;20035;-76
2022/12/17 14:03:30;;;;;;;64.18;44.60;;;18.90;50.30;;;;;;5013870;28;20041;-76
2022/12/17 14:05:57;;;;;;;71.30;45.78;;;19.00;51.60;;;;;;5048561;28;20031;-76
2022/12/17 14:08:27;;;;;;;65.75;46.88;;;19.10;55.50;;;;;;5033800;28;20116;-77
2022/12/17 14:13:41;;;;;;;60.53;42.15;;;19.20;56.80;;;;;;5046920;28;20033;-76
2022/12/17 14:16:07;;;;;;;54.55;40.03;;;19.20;55.40;;;;;;5045061;28;20025;-77
2022/12/17 14:18:33;;;;;;;55.97;39.55;;;19.20;56.00;;;;;;5017780;28;20040;-76
2022/12/17 14:20:59;;;;;;;55.72;38.58;;;19.30;54.90;;;;;;5041358;28;20021;-76
2022/12/17 14:23:31;;;;;;;56.53;36.03;;;19.30;54.50;;;;;;5012720;28;20033;-75
2022/12/17 14:25:57;;;;;;;56.70;35.30;;;19.30;54.50;;;;;;5023957;28;20556;-75
2022/12/17 14:28:34;;;;;;;55.00;34.10;;;19.30;54.10;;;;;;5043774;28;20025;-74
2022/12/17 14:31:16;;;;;;;50.72;31.00;;;19.30;57.00;;;;;;5042470;28;20037;-74
2022/12/17 14:33:43;;;;;;;50.42;32.65;;;19.30;58.90;;;;;;5025372;28;20036;-74
2022/12/17 14:36:15;;;;;;;57.33;33.90;;;19.30;56.90;;;;;;5046835;28;20029;-74
2022/12/17 14:38:50;;;;;;;51.65;31.27;;;19.30;56.40;;;;;;5046014;28;20049;-76
2022/12/17 14:44:02;;;;;;;41.25;28.70;;;19.30;57.30;;;;;;5050587;28;20028;-75
2022/12/17 14:46:29;;;;;;;54.80;30.05;;;19.40;57.70;;;;;;5029583;28;20059;-72
2022/12/17 14:49:00;;;;;;;43.20;28.67;;;19.40;57.60;;;;;;5038748;28;20032;-75
2022/12/17 14:51:40;;;;;;;38.72;28.15;;;19.30;58.30;;;;;;5050979;28;20392;-77
2022/12/17 14:54:24;;;;;;;40.25;28.33;;;19.40;54.90;;;;;;5029532;28;20033;-77
2022/12/17 14:56:53;;;;;;;35.20;27.98;;;19.30;55.70;;;;;;5033139;28;20045;-76
2022/12/17 14:59:36;;;;;;;60.08;28.00;;;19.30;57.50;;;;;;5050402;28;20020;-76
2022/12/17 15:02:09;;;;;;;61.28;28.55;;;19.30;57.10;;;;;;5034445;28;20431;-75
2022/12/17 15:04:37;;;;;;;57.90;28.02;;;19.40;58.60;;;;;;5014880;28;20401;-76
2022/12/17 15:07:04;;;;;;;47.28;26.77;;;19.60;58.30;;;;;;5037609;28;20032;-77
2022/12/17 15:09:35;;;;;;;56.13;26.08;;;19.70;58.80;;;;;;5051638;28;20056;-77
2022/12/17 15:12:01;;;;;;;43.55;26.63;;;19.70;58.70;;;;;;5052126;28;20036;-77
2022/12/17 15:14:26;;;;;;;43.08;25.88;;;19.70;58.30;;;;;;5048607;28;20029;-77
2022/12/17 15:16:54;;;;;;;45.85;25.20;;;19.80;58.20;;;;;;5048065;28;20029;-77
2022/12/17 15:19:20;;;;;;;37.60;24.33;;;19.80;58.10;;;;;;5033403;28;20127;-76
2022/12/17 15:21:46;;;;;;;49.60;24.27;;;19.80;58.50;;;;;;5052233;28;20118;-76
2022/12/17 15:24:18;;;;;;;43.42;24.27;;;19.80;58.40;;;;;;5051545;28;20051;-77
2022/12/17 15:26:44;;;;;;;41.80;23.05;;;19.80;58.40;;;;;;5033709;28;20425;-77
2022/12/17 15:29:11;;;;;;;53.20;24.40;;;19.90;57.70;;;;;;5014438;28;20029;-76
2022/12/17 15:31:37;;;;;;;40.42;23.30;;;19.90;58.00;;;;;;5049732;28;20504;-79
2022/12/17 15:34:03;;;;;;;42.17;23.83;;;19.90;57.90;;;;;;5034038;28;20098;-75
2022/12/17 15:36:33;;;;;;;38.03;23.17;;;19.90;57.90;;;;;;5057873;28;20025;-76
2022/12/17 15:38:59;;;;;;;37.50;22.55;;;19.90;57.80;;;;;;5029835;28;20396;-76
2022/12/17 15:44:11;;;;;;;38.47;21.63;;;19.90;58.20;;;;;;5032755;28;20120;-75
2022/12/17 15:46:38;;;;;;;41.05;21.92;;;19.90;58.00;;;;;;5050617;28;20040;-74
2022/12/17 15:49:04;;;;;;;36.00;21.85;;;19.90;57.90;;;;;;5017029;28;20059;-75
2022/12/17 15:51:30;;;;;;;35.47;21.20;;;19.90;58.20;;;;;;5050827;28;20069;-75
2022/12/17 15:53:56;;;;;;;41.08;22.20;;;19.90;57.70;;;;;;5032324;28;20040;-76
2022/12/17 15:56:24;;;;;;;30.92;19.92;;;19.90;58.20;;;;;;5051720;28;20036;-76
2022/12/17 15:58:50;;;;;;;38.38;20.70;;;19.90;58.20;;;;;;5049790;28;20106;-77
2022/12/17 16:01:17;;;;;;;28.40;19.70;;;19.90;58.10;;;;;;5042131;28;20079;-77
2022/12/17 16:03:43;;;;;;;31.40;19.63;;;19.90;58.00;;;;;;5050423;28;20021;-75
2022/12/17 16:06:09;;;;;;;32.30;20.25;;;19.90;58.10;;;;;;5051010;28;20051;-76
2022/12/17 16:08:39;;;;;;;30.65;18.83;;;20.00;58.20;;;;;;5044072;28;20548;-76
2022/12/17 16:11:10;;;;;;;32.30;20.98;;;19.90;57.80;;;;;;5054139;28;20173;-75
2022/12/17 16:13:36;;;;;;;42.03;29.83;;;19.80;56.10;;;;;;5012198;28;20121;-78
2022/12/17 16:16:02;;;;;;;54.00;39.33;;;19.60;52.00;;;;;;5026351;28;20036;-74
2022/12/17 16:18:28;;;;;;;49.60;34.78;;;19.30;46.80;;;;;;5027570;28;20025;-74
2022/12/17 16:20:54;;;;;;;45.42;31.65;;;19.30;49.00;;;;;;5032600;28;20028;-75
2022/12/17 16:23:20;;;;;;;43.63;30.95;;;19.20;50.40;;;;;;5049717;28;20040;-74
2022/12/17 16:26:07;;;;;;;43.13;30.05;;;19.20;51.20;;;;;;5048495;28;20469;-74
2022/12/17 16:28:34;;;;;;;49.25;28.58;;;19.20;51.70;;;;;;5036067;28;20056;-74
2022/12/17 16:31:05;;;;;;;47.90;28.55;;;19.30;52.50;;;;;;5045950;28;20265;-73
2022/12/17 16:33:33;;;;;;;56.08;27.42;;;19.30;52.70;;;;;;5046774;28;20167;-73
2022/12/17 16:36:00;;;;;;;42.00;27.52;;;19.50;54.50;;;;;;5048875;28;20037;-73
2022/12/17 16:38:26;;;;;;;42.40;28.25;;;19.40;51.70;;;;;;5050119;28;20494;-73
2022/12/17 16:40:56;;;;;;;44.75;26.67;;;19.40;52.00;;;;;;5050985;28;20136;-72
2022/12/17 16:43:23;;;;;;;40.97;25.73;;;19.30;52.10;;;;;;5047404;28;20550;-72
2022/12/17 16:45:50;;;;;;;37.92;25.40;;;19.30;52.60;;;;;;5049557;28;20040;-73
2022/12/17 16:48:18;;;;;;;39.42;26.08;;;19.30;52.50;;;;;;5031110;28;20164;-73
2022/12/17 16:50:44;;;;;;;36.08;24.88;;;19.30;53.20;;;;;;5032303;28;20040;-73
2022/12/17 16:53:11;;;;;;;34.85;24.73;;;19.20;53.20;;;;;;5046499;28;21038;-74
2022/12/17 16:55:42;;;;;;;36.30;25.27;;;19.20;53.50;;;;;;5048605;28;20029;-74
2022/12/17 16:58:08;;;;;;;35.88;24.02;;;19.20;53.40;;;;;;5045489;28;20098;-75
2022/12/17 17:00:35;;;;;;;36.00;23.52;;;19.20;53.60;;;;;;5015779;28;20076;-75
2022/12/17 17:03:01;;;;;;;33.95;23.85;;;19.20;53.60;;;;;;5048915;28;20044;-73
2022/12/17 17:05:30;;;;;;;32.88;23.77;;;19.20;53.60;;;;;;5049243;28;20029;-75
2022/12/17 17:07:55;;;;;;;32.27;22.47;;;19.10;53.70;;;;;;5046824;28;20083;-75
2022/12/17 17:10:21;;;;;;;51.33;23.27;;;19.10;53.70;;;;;;5029678;28;20106;-75
2022/12/17 17:12:49;;;;;;;32.40;22.27;;;19.10;53.80;;;;;;5049723;28;20040;-75
2022/12/17 17:15:15;;;;;;;35.00;21.50;;;19.10;53.80;;;;;;5047901;28;20060;-75
2022/12/17 17:17:43;;;;;;;30.75;21.95;;;19.10;54.40;;;;;;5048540;28;20033;-74
2022/12/17 17:20:10;;;;;;;29.23;20.95;;;19.10;53.80;;;;;;5047792;28;20021;-75
2022/12/17 17:22:35;;;;;;;34.53;22.38;;;19.10;53.80;;;;;;5047198;28;20381;-74
2022/12/17 17:25:02;;;;;;;29.10;21.00;;;19.10;53.90;;;;;;5048223;28;20024;-73
2022/12/17 17:27:27;;;;;;;28.75;21.73;;;19.10;53.90;;;;;;5049490;28;20029;-73
2022/12/17 17:29:55;;;;;;;32.88;21.75;;;19.10;53.90;;;;;;5025650;28;20043;-73
2022/12/17 17:32:21;;;;;;;29.83;20.15;;;19.10;53.90;;;;;;5011914;28;20033;-73
2022/12/17 17:34:47;;;;;;;30.27;20.60;;;19.10;53.90;;;;;;5048999;28;20050;-73
2022/12/17 17:37:13;;;;;;;32.15;21.98;;;19.10;53.80;;;;;;5049249;28;20036;-74
2022/12/17 17:39:40;;;;;;;33.13;20.52;;;19.10;53.80;;;;;;5046925;28;20083;-73
2022/12/17 17:42:06;;;;;;;30.52;21.95;;;19.10;53.80;;;;;;5048450;28;20090;-73
2022/12/17 17:44:32;;;;;;;28.83;20.55;;;19.10;53.80;;;;;;5049149;28;20029;-74
2022/12/17 17:46:59;;;;;;;30.75;21.08;;;19.10;53.80;;;;;;5030456;28;20029;-73
2022/12/17 17:49:25;;;;;;;28.48;20.52;;;19.10;53.80;;;;;;5047368;28;20037;-73
2022/12/17 17:51:51;;;;;;;29.25;20.20;;;19.10;53.80;;;;;;5049365;28;20115;-73
2022/12/17 17:54:16;;;;;;;31.70;20.83;;;19.10;53.80;;;;;;5030500;28;20528;-73
2022/12/17 17:56:43;;;;;;;27.95;19.90;;;19.10;53.80;;;;;;5046920;28;20033;-73
2022/12/17 17:59:14;;;;;;;29.20;19.83;;;19.10;53.80;;;;;;5031144;28;20429;-73
2022/12/17 18:01:43;;;;;;;28.35;20.05;;;19.10;53.80;;;;;;5030749;28;20460;-74
2022/12/17 18:04:12;;;;;;;29.35;19.45;;;19.10;53.80;;;;;;5044372;28;20049;-74
2022/12/17 18:06:39;;;;;;;27.42;19.25;;;19.10;53.80;;;;;;5046993;28;20033;-73
2022/12/17 18:09:06;;;;;;;27.73;20.23;;;19.00;53.70;;;;;;5014723;28;20116;-73
2022/12/17 18:11:33;;;;;;;27.75;19.77;;;19.10;53.80;;;;;;5030229;28;20037;-74
2022/12/17 18:14:00;;;;;;;27.63;18.67;;;19.00;53.80;;;;;;5049278;28;20392;-74
2022/12/17 18:16:35;;;;;;;28.67;19.80;;;19.00;53.70;;;;;;5018776;28;20082;-74
2022/12/17 18:19:07;;;;;;;29.40;19.55;;;19.00;53.70;;;;;;5046240;28;20536;-74
2022/12/17 18:21:34;;;;;;;29.15;20.08;;;19.00;53.70;;;;;;5048952;28;20056;-74
2022/12/17 18:24:06;;;;;;;26.90;19.60;;;19.10;53.70;;;;;;5047314;28;20488;-74
2022/12/17 18:26:38;;;;;;;29.02;19.63;;;19.00;53.80;;;;;;5048891;28;20037;-74
2022/12/17 18:29:18;;;;;;;28.25;19.38;;;19.00;53.70;;;;;;5045294;28;20594;-74
2022/12/17 18:31:44;;;;;;;27.75;19.88;;;19.00;53.70;;;;;;5052819;28;20033;-74
2022/12/17 18:34:16;;;;;;;25.30;19.05;;;19.00;53.60;;;;;;5051023;28;20044;-74
2022/12/17 18:36:43;;;;;;;23.70;17.90;;;19.00;53.70;;;;;;5030102;28;20037;-74
2022/12/17 18:39:13;;;;;;;28.83;19.33;;;19.00;53.70;;;;;;5050621;28;20029;-74
2022/12/17 18:44:25;;;;;;;25.85;18.00;;;19.00;53.60;;;;;;5050102;28;20039;-74
2022/12/17 18:46:51;;;;;;;26.80;18.77;;;19.00;53.60;;;;;;5052268;28;20036;-75
2022/12/17 18:49:19;;;;;;;25.92;18.85;;;19.00;54.20;;;;;;5016304;28;20043;-75
2022/12/17 18:51:47;;;;;;;24.83;18.10;;;19.00;54.10;;;;;;5052263;28;20032;-74
2022/12/17 18:54:16;;;;;;;26.92;18.95;;;19.00;53.60;;;;;;5051972;28;20479;-74
2022/12/17 18:56:42;;;;;;;23.52;17.45;;;19.00;53.50;;;;;;5048915;28;20043;-75
2022/12/17 18:59:11;;;;;;;24.38;18.77;;;19.00;53.50;;;;;;5033636;28;20067;-74
2022/12/17 19:01:37;;;;;;;23.95;17.08;;;19.00;53.40;;;;;;5033137;28;20500;-75
2022/12/17 19:04:05;;;;;;;26.92;18.27;;;19.00;53.50;;;;;;5034264;28;20090;-75
2022/12/17 19:06:32;;;;;;;26.30;19.10;;;19.00;53.40;;;;;;5048937;28;20068;-74
2022/12/17 19:08:59;;;;;;;27.42;18.70;;;19.00;53.90;;;;;;5033863;28;20032;-75
2022/12/17 19:11:25;;;;;;;26.67;18.52;;;19.00;53.30;;;;;;5050461;28;20072;-75
2022/12/17 19:13:51;;;;;;;28.02;17.77;;;19.00;53.50;;;;;;5049991;28;20060;-75
2022/12/17 19:16:19;;;;;;;24.20;18.20;;;19.00;53.30;;;;;;5033361;28;20032;-75
2022/12/17 19:19:09;;;;;;;25.63;18.80;;;19.00;53.30;;;;;;5051561;28;20029;-76
2022/12/17 19:21:38;;;;;;;24.02;17.40;;;19.00;53.30;;;;;;5049664;28;20060;-74
2022/12/17 19:24:06;;;;;;;24.95;17.98;;;19.00;53.30;;;;;;5034328;28;20025;-74
2022/12/17 19:26:33;;;;;;;23.52;17.50;;;19.00;53.30;;;;;;5050968;28;20040;-74
2022/12/17 19:29:00;;;;;;;23.52;16.80;;;19.00;53.20;;;;;;5033860;28;20060;-73
2022/12/17 19:31:29;;;;;;;24.33;17.20;;;19.00;53.20;;;;;;5050382;28;20116;-74
2022/12/17 19:33:57;;;;;;;23.10;16.58;;;19.00;53.30;;;;;;5033238;28;20036;-72
2022/12/17 19:36:24;;;;;;;25.02;17.77;;;19.00;53.20;;;;;;5049722;28;20039;-73
2022/12/17 19:38:55;;;;;;;23.65;17.58;;;19.00;53.20;;;;;;5051308;28;20025;-74
2022/12/17 19:41:21;;;;;;;23.17;16.55;;;19.00;53.30;;;;;;5049349;28;20025;-75
2022/12/17 19:43:52;;;;;;;23.35;16.80;;;19.00;53.30;;;;;;5033544;28;20512;-75
2022/12/17 19:46:22;;;;;;;24.92;17.67;;;19.00;53.20;;;;;;5032914;28;20052;-74
2022/12/17 19:48:48;;;;;;;22.48;17.35;;;19.00;53.20;;;;;;5049016;28;20056;-75
2022/12/17 19:51:17;;;;;;;24.45;17.45;;;19.00;53.20;;;;;;5050883;28;20025;-75
2022/12/17 19:53:44;;;;;;;23.63;17.33;;;19.00;53.20;;;;;;5032264;28;20041;-75
2022/12/17 19:56:17;;;;;;;24.90;16.92;;;19.00;53.80;;;;;;5033397;28;20032;-75
2022/12/17 19:58:44;;;;;;;24.08;17.33;;;19.00;53.20;;;;;;5049336;28;20037;-75
2022/12/17 20:01:15;;;;;;;25.13;16.88;;;18.90;53.10;;;;;;5050215;28;20122;-74
2022/12/17 20:03:43;;;;;;;24.98;16.88;;;18.90;53.10;;;;;;5050388;28;20100;-74
2022/12/17 20:06:11;;;;;;;22.40;16.27;;;19.00;53.20;;;;;;5048815;28;20037;-74
2022/12/17 20:08:37;;;;;;;22.67;17.10;;;19.00;53.20;;;;;;5047979;28;20029;-75
2022/12/17 20:13:55;;;;;;;24.05;17.40;;;19.00;53.20;;;;;;5050472;28;20060;-74
2022/12/17 20:16:21;;;;;;;24.10;16.70;;;19.00;53.00;;;;;;5049187;28;20036;-75
2022/12/17 20:18:47;;;;;;;22.50;16.25;;;19.00;53.10;;;;;;5050019;28;20127;-74
2022/12/17 20:21:13;;;;;;;24.23;16.70;;;19.00;53.00;;;;;;5031294;28;20764;-74
2022/12/17 20:23:39;;;;;;;22.83;16.13;;;19.00;52.90;;;;;;5048921;28;20056;-74
2022/12/17 20:26:07;;;;;;;23.17;17.38;;;19.00;52.90;;;;;;5032785;28;20118;-75
2022/12/17 20:28:33;;;;;;;21.67;15.38;;;19.00;52.80;;;;;;5049377;28;20025;-75
2022/12/17 20:31:00;;;;;;;22.17;16.40;;;19.00;52.80;;;;;;5033035;28;20453;-74
2022/12/17 20:33:26;;;;;;;24.15;16.70;;;19.00;52.80;;;;;;5031326;28;20035;-74
2022/12/17 20:35:54;;;;;;;23.13;16.98;;;18.90;52.80;;;;;;5046149;28;20408;-75
2022/12/17 20:38:20;;;;;;;23.30;16.67;;;19.00;52.90;;;;;;5031431;28;20048;-74
2022/12/17 20:40:46;;;;;;;22.45;16.35;;;19.00;52.80;;;;;;5032770;28;20476;-74
2022/12/17 20:43:12;;;;;;;23.45;17.10;;;18.90;52.80;;;;;;5049110;28;20013;-74
2022/12/17 20:45:38;;;;;;;24.00;16.73;;;19.00;52.80;;;;;;5049693;28;20547;-74
2022/12/17 20:48:04;;;;;;;22.42;16.50;;;18.90;52.80;;;;;;5043969;28;20037;-74
2022/12/17 20:50:29;;;;;;;20.95;15.30;;;19.00;52.70;;;;;;5047895;28;20056;-74
2022/12/17 20:52:55;;;;;;;23.20;16.98;;;18.90;52.80;;;;;;5031576;28;20426;-74
2022/12/17 20:55:21;;;;;;;21.88;15.32;;;18.90;52.70;;;;;;5048685;28;20116;-74
2022/12/17 20:57:47;;;;;;;21.95;15.60;;;18.90;52.80;;;;;;5047894;28;20108;-74
2022/12/17 21:00:13;;;;;;;22.45;16.35;;;18.90;52.70;;;;;;5048369;28;20056;-74
2022/12/17 21:02:38;;;;;;;23.38;15.80;;;18.90;52.70;;;;;;5050408;28;20029;-74
2022/12/17 21:05:05;;;;;;;21.83;15.77;;;18.90;52.80;;;;;;5029986;28;20033;-74
2022/12/17 21:07:30;;;;;;;22.42;16.02;;;18.90;52.70;;;;;;5048377;28;20083;-74
2022/12/17 21:09:56;;;;;;;21.67;16.13;;;18.90;52.70;;;;;;5047011;28;20024;-74
2022/12/17 21:15:49;;;;;;;20.88;15.18;;;18.90;52.70;;;;;;5031535;28;20037;-75
2022/12/17 21:18:15;;;;;;;21.02;14.90;;;18.90;52.70;;;;;;5048515;28;20025;-74
2022/12/17 21:20:41;;;;;;;21.13;14.95;;;18.90;52.80;;;;;;5049690;28;20031;-75
2022/12/17 21:23:06;;;;;;;20.80;15.20;;;18.90;52.60;;;;;;5048614;28;20108;-74
2022/12/17 21:25:32;;;;;;;21.48;15.38;;;18.90;52.80;;;;;;5030084;28;20040;-74
2022/12/17 21:27:59;;;;;;;20.42;14.07;;;18.90;52.70;;;;;;5049288;28;20031;-74
2022/12/17 21:30:25;;;;;;;20.42;15.25;;;18.90;52.70;;;;;;5029826;28;20060;-74
2022/12/17 21:32:50;;;;;;;21.23;14.50;;;18.90;52.60;;;;;;5045625;28;20071;-74
2022/12/17 21:35:16;;;;;;;21.38;15.10;;;18.90;52.60;;;;;;5043872;28;20075;-74
2022/12/17 21:37:42;;;;;;;22.55;14.65;;;18.90;52.60;;;;;;5047939;28;20043;-74
2022/12/17 21:40:08;;;;;;;21.85;15.65;;;18.90;52.60;;;;;;5031218;28;20024;-74
2022/12/17 21:43:19;;;;;;;21.65;14.45;;;18.90;52.50;;;;;;5047717;28;20056;-74
2022/12/17 21:45:20;;;;;;;20.25;14.65;;;18.90;52.50;;;;;;5034307;28;20049;-75
2022/12/17 21:47:46;;;;;;;20.55;15.10;;;18.90;52.50;;;;;;5046365;28;20032;-74
2022/12/17 21:50:11;;;;;;;21.33;15.30;;;18.90;52.30;;;;;;5049000;28;20033;-74
2022/12/17 21:52:37;;;;;;;21.67;14.65;;;18.90;52.30;;;;;;5029448;28;20033;-74
2022/12/17 21:55:03;;;;;;;21.50;15.25;;;18.90;52.20;;;;;;5049189;28;20032;-74
2022/12/17 21:57:29;;;;;;;21.60;15.43;;;18.90;52.20;;;;;;5047927;28;20025;-74
2022/12/17 21:59:55;;;;;;;21.02;15.32;;;18.90;52.20;;;;;;5030948;28;20033;-74
2022/12/17 22:02:21;;;;;;;21.98;15.25;;;18.90;52.80;;;;;;5047493;28;20029;-74
2022/12/17 22:04:47;;;;;;;19.33;13.80;;;18.90;52.20;;;;;;5032480;28;20025;-74
2022/12/17 22:07:13;;;;;;;22.08;14.60;;;18.90;52.30;;;;;;5017703;28;20029;-74
2022/12/17 22:09:39;;;;;;;20.63;14.60;;;18.90;52.30;;;;;;5052552;28;20025;-74
2022/12/17 22:14:49;;;;;;;18.45;13.90;;;18.90;52.30;;;;;;5053177;28;20032;-74
2022/12/17 22:17:15;;;;;;;18.98;14.43;;;18.90;52.30;;;;;;5051951;28;20021;-74
2022/12/17 22:19:41;;;;;;;20.27;14.27;;;18.90;52.90;;;;;;5034520;28;20055;-74
2022/12/17 22:22:06;;;;;;;19.88;14.00;;;18.90;52.30;;;;;;5033874;28;20508;-74
2022/12/17 22:24:32;;;;;;;20.13;13.73;;;18.90;52.30;;;;;;5053160;28;20453;-74
2022/12/17 22:26:59;;;;;;;20.15;13.82;;;18.90;52.20;;;;;;5049886;28;20044;-74
2022/12/17 22:34:57;;;;;;;17.60;12.15;;;18.80;52.20;;;;;;5052099;28;20388;-74
2022/12/17 22:37:23;;;;;;;18.25;13.25;;;18.80;52.20;;;;;;5052715;28;20029;-74
2022/12/17 22:39:49;;;;;;;19.00;13.80;;;18.90;52.20;;;;;;5033138;28;20079;-74
2022/12/17 22:44:59;;;;;;;18.60;13.05;;;18.90;52.10;;;;;;5051495;28;20041;-74
2022/12/17 22:47:25;;;;;;;18.63;13.50;;;18.80;52.20;;;;;;5052405;28;20103;-74
2022/12/17 22:49:51;;;;;;;19.52;13.38;;;18.80;52.10;;;;;;5049909;28;20033;-74
2022/12/17 22:52:17;;;;;;;17.15;12.07;;;18.90;52.30;;;;;;5052702;28;20025;-74
2022/12/17 22:54:42;;;;;;;18.70;12.85;;;18.80;52.00;;;;;;5051344;28;20033;-74
2022/12/17 22:57:08;;;;;;;17.52;12.90;;;18.80;52.00;;;;;;5052208;28;20032;-74
2022/12/17 22:59:34;;;;;;;17.35;12.27;;;18.80;52.00;;;;;;5050361;28;20028;-74
2022/12/17 23:02:00;;;;;;;18.50;13.45;;;18.80;52.00;;;;;;5033784;28;20120;-75
2022/12/17 23:04:26;;;;;;;18.83;13.48;;;18.90;51.90;;;;;;5050598;28;20052;-74
2022/12/17 23:06:51;;;;;;;18.63;13.38;;;18.80;52.40;;;;;;5034457;28;20041;-75
2022/12/17 23:09:18;;;;;;;19.00;13.18;;;18.90;51.80;;;;;;5050533;28;20027;-74
2022/12/17 23:11:45;;;;;;;19.67;12.65;;;18.80;51.70;;;;;;5033783;28;20025;-74
2022/12/17 23:14:11;;;;;;;17.98;13.27;;;18.90;51.70;;;;;;5048356;28;20033;-74
2022/12/17 23:16:38;;;;;;;17.98;12.77;;;18.80;51.50;;;;;;5050527;28;20036;-75
2022/12/17 23:19:05;;;;;;;19.70;13.10;;;18.80;51.60;;;;;;5051327;28;20055;-75
2022/12/17 23:21:31;;;;;;;17.98;12.70;;;18.80;52.20;;;;;;5051777;28;20381;-75
2022/12/17 23:23:57;;;;;;;18.40;13.32;;;18.80;51.70;;;;;;5049542;28;20417;-75
2022/12/17 23:26:30;;;;;;;18.02;12.75;;;18.80;51.60;;;;;;5033784;28;20483;-75
2022/12/17 23:29:00;;;;;;;18.77;12.63;;;18.80;51.70;;;;;;5027116;28;20022;-75
2022/12/17 23:31:31;;;;;;;18.95;12.75;;;18.80;51.70;;;;;;5050647;28;20049;-75
2022/12/17 23:33:57;;;;;;;17.17;11.85;;;18.80;51.70;;;;;;5036287;28;20790;-75
2022/12/17 23:36:24;;;;;;;18.08;12.40;;;18.80;51.80;;;;;;5050660;28;20522;-75
2022/12/17 23:38:52;;;;;;;16.90;12.10;;;18.80;51.80;;;;;;5032552;28;20392;-75
2022/12/17 23:41:21;;;;;;;18.50;13.07;;;18.80;51.70;;;;;;5025023;28;20036;-75
2022/12/17 23:43:47;;;;;;;15.93;11.20;;;18.80;51.70;;;;;;5049734;28;20395;-75
2022/12/17 23:46:14;;;;;;;18.20;11.77;;;18.80;51.80;;;;;;5051501;28;20548;-75
2022/12/17 23:48:41;;;;;;;16.75;12.25;;;18.80;51.90;;;;;;5049730;28;20404;-75
2022/12/17 23:51:08;;;;;;;19.05;13.55;;;18.80;51.70;;;;;;5051310;28;20025;-75
2022/12/17 23:53:35;;;;;;;17.08;11.68;;;18.80;51.70;;;;;;5047430;28;20055;-75
2022/12/17 23:56:04;;;;;;;17.02;11.88;;;18.80;51.60;;;;;;5049565;28;20021;-73
2022/12/17 23:58:30;;;;;;;19.25;12.93;;;18.80;51.70;;;;;;5030922;28;20029;-73
